Pagrindinis puslapis
METAR-TAF:

METAR-TAF

Oro uostai :

Nakhon Ratchasima, Tailandas

platuma: 14-56-58N, ilguma: 102-18-45E, Aukštis: 233 m

Dabartinis oras

Ataskaita buvo paskelbta 1 valandą ir 24 minutes, ne 14:00 UTC
Vėjas 6 kt iš Šiaurės Rytų
Temperatūra 25°C
Drėgmė 65%
Slėgis 1014 hPa
Matomumas 10 km arba daugiau
nėra debesų žemiau 1500 m ir nėra kamuolinių lietaus debesų

METAR: VTUQ 191400Z 05006KT CAVOK 25/18 Q1014 NOSIG

Laikas: 22:24 (15:24 UTC)

Prognozė

Ataskaita buvo paskelbta 4 valandos ir 24 minutes, ne 11:00 UTC
Prognozė galioja nuo 19 metu 12 UTC su 20 metu 12 UTC
Vėjas 7 kt iš Rytų/Šiaurės Rytų
Matomumas: 9000 m

TAF: VTUQ 191100Z 1912/2012 06007KT 9000 NSC

Orai ataskaitas ir orų prognozės (METAR, TAF).

turimą stotys yra geltonos ir raudonos taškus žemėlapyje.

Perkelti pele per norėdami pamatyti stoties vardą.

Tada spustelėkite, norėdami matyti oro stebėjimo ir prognozės.

Norėdami pakeisti žemėlapį: spustelėkite ant žalios mygtukų su juodo kryžiaus žemyn,; žalią mygtuką su brūkšneliu, jei norite nutolinti; arba žalių rodyklių gretimoms žemėlapius.


METAR-TAF: